sensor_id;sensor_type;location;lat;lon;timestamp;temperature;humidity
19868;DHT22;10096;51.112;6.776;2023-04-25T00:01:07;6.90;1.00
19868;DHT22;10096;51.112;6.776;2023-04-25T00:03:35;6.90;1.00
19868;DHT22;10096;51.112;6.776;2023-04-25T00:06:02;6.90;1.00
19868;DHT22;10096;51.112;6.776;2023-04-25T00:08:29;7.00;1.00
19868;DHT22;10096;51.112;6.776;2023-04-25T00:10:56;7.00;1.00
19868;DHT22;10096;51.112;6.776;2023-04-25T00:13:23;6.90;1.00
19868;DHT22;10096;51.112;6.776;2023-04-25T00:15:52;6.90;1.00
19868;DHT22;10096;51.112;6.776;2023-04-25T00:18:19;7.10;1.00
19868;DHT22;10096;51.112;6.776;2023-04-25T00:20:47;6.80;1.00
19868;DHT22;10096;51.112;6.776;2023-04-25T00:23:15;6.80;1.00
19868;DHT22;10096;51.112;6.776;2023-04-25T00:25:43;6.80;1.00
19868;DHT22;10096;51.112;6.776;2023-04-25T00:28:12;6.80;1.00
19868;DHT22;10096;51.112;6.776;2023-04-25T00:30:40;7.00;1.00
19868;DHT22;10096;51.112;6.776;2023-04-25T00:33:09;7.10;1.00
19868;DHT22;10096;51.112;6.776;2023-04-25T00:35:36;7.20;1.00
19868;DHT22;10096;51.112;6.776;2023-04-25T00:38:03;7.30;1.00
19868;DHT22;10096;51.112;6.776;2023-04-25T00:40:30;7.30;1.00
19868;DHT22;10096;51.112;6.776;2023-04-25T00:42:57;7.40;1.00
19868;DHT22;10096;51.112;6.776;2023-04-25T00:45:27;7.40;1.00
19868;DHT22;10096;51.112;6.776;2023-04-25T00:47:56;7.70;1.00
19868;DHT22;10096;51.112;6.776;2023-04-25T00:50:25;7.70;1.00
19868;DHT22;10096;51.112;6.776;2023-04-25T00:52:52;7.80;1.00
19868;DHT22;10096;51.112;6.776;2023-04-25T00:55:19;8.20;1.00
19868;DHT22;10096;51.112;6.776;2023-04-25T00:57:47;8.00;1.00
19868;DHT22;10096;51.112;6.776;2023-04-25T01:00:14;8.20;1.00
19868;DHT22;10096;51.112;6.776;2023-04-25T01:02:41;8.20;1.00
19868;DHT22;10096;51.112;6.776;2023-04-25T01:05:09;8.50;1.00
19868;DHT22;10096;51.112;6.776;2023-04-25T01:07:37;8.30;1.00
19868;DHT22;10096;51.112;6.776;2023-04-25T01:10:06;8.30;1.00
19868;DHT22;10096;51.112;6.776;2023-04-25T01:12:33;8.50;1.00
19868;DHT22;10096;51.112;6.776;2023-04-25T01:15:04;8.40;1.00
19868;DHT22;10096;51.112;6.776;2023-04-25T01:17:31;8.50;1.00
19868;DHT22;10096;51.112;6.776;2023-04-25T01:19:58;8.50;1.00
19868;DHT22;10096;51.112;6.776;2023-04-25T01:22:27;8.50;1.00
19868;DHT22;10096;51.112;6.776;2023-04-25T01:24:54;8.50;1.00
19868;DHT22;10096;51.112;6.776;2023-04-25T01:27:22;8.50;1.00
19868;DHT22;10096;51.112;6.776;2023-04-25T01:29:49;8.50;1.00
19868;DHT22;10096;51.112;6.776;2023-04-25T01:32:17;8.70;1.00
19868;DHT22;10096;51.112;6.776;2023-04-25T01:34:46;8.50;1.00
19868;DHT22;10096;51.112;6.776;2023-04-25T01:37:13;8.90;1.00
19868;DHT22;10096;51.112;6.776;2023-04-25T01:39:42;8.50;1.00
19868;DHT22;10096;51.112;6.776;2023-04-25T01:42:09;8.50;1.00
19868;DHT22;10096;51.112;6.776;2023-04-25T01:44:36;8.50;1.00
19868;DHT22;10096;51.112;6.776;2023-04-25T01:47:03;8.60;1.00
19868;DHT22;10096;51.112;6.776;2023-04-25T01:49:30;8.60;1.00
19868;DHT22;10096;51.112;6.776;2023-04-25T01:51:57;8.50;1.00
19868;DHT22;10096;51.112;6.776;2023-04-25T01:54:25;8.80;1.00
19868;DHT22;10096;51.112;6.776;2023-04-25T01:56:57;8.50;1.00
19868;DHT22;10096;51.112;6.776;2023-04-25T01:59:24;8.50;1.00
19868;DHT22;10096;51.112;6.776;2023-04-25T02:01:51;8.50;1.00
19868;DHT22;10096;51.112;6.776;2023-04-25T02:04:18;8.50;1.00
19868;DHT22;10096;51.112;6.776;2023-04-25T02:06:45;8.50;1.00
19868;DHT22;10096;51.112;6.776;2023-04-25T02:09:12;8.40;1.00
19868;DHT22;10096;51.112;6.776;2023-04-25T02:11:39;8.10;1.00
19868;DHT22;10096;51.112;6.776;2023-04-25T02:14:07;8.30;1.00
19868;DHT22;10096;51.112;6.776;2023-04-25T02:16:34;8.50;1.00
19868;DHT22;10096;51.112;6.776;2023-04-25T02:19:02;8.30;1.00
19868;DHT22;10096;51.112;6.776;2023-04-25T02:21:30;8.30;1.00
19868;DHT22;10096;51.112;6.776;2023-04-25T02:23:57;8.40;1.00
19868;DHT22;10096;51.112;6.776;2023-04-25T02:26:25;8.40;1.00
19868;DHT22;10096;51.112;6.776;2023-04-25T02:28:52;8.70;1.00
19868;DHT22;10096;51.112;6.776;2023-04-25T02:31:21;8.50;1.00
19868;DHT22;10096;51.112;6.776;2023-04-25T02:33:48;8.80;1.00
19868;DHT22;10096;51.112;6.776;2023-04-25T02:36:15;8.30;1.00
19868;DHT22;10096;51.112;6.776;2023-04-25T02:38:42;8.60;1.00
19868;DHT22;10096;51.112;6.776;2023-04-25T02:41:09;8.90;1.00
19868;DHT22;10096;51.112;6.776;2023-04-25T02:43:36;8.70;1.00
19868;DHT22;10096;51.112;6.776;2023-04-25T02:46:04;8.60;1.00
19868;DHT22;10096;51.112;6.776;2023-04-25T02:48:32;8.70;1.00
19868;DHT22;10096;51.112;6.776;2023-04-25T02:50:59;8.70;1.00
19868;DHT22;10096;51.112;6.776;2023-04-25T02:53:26;8.70;1.00
19868;DHT22;10096;51.112;6.776;2023-04-25T02:55:54;8.60;1.00
19868;DHT22;10096;51.112;6.776;2023-04-25T02:58:23;8.60;1.00
19868;DHT22;10096;51.112;6.776;2023-04-25T03:00:50;8.60;1.00
19868;DHT22;10096;51.112;6.776;2023-04-25T03:03:20;8.70;1.00
19868;DHT22;10096;51.112;6.776;2023-04-25T03:05:49;8.60;1.00
19868;DHT22;10096;51.112;6.776;2023-04-25T03:08:17;8.70;1.00
19868;DHT22;10096;51.112;6.776;2023-04-25T03:10:44;8.70;1.00
19868;DHT22;10096;51.112;6.776;2023-04-25T03:13:11;8.60;1.00
19868;DHT22;10096;51.112;6.776;2023-04-25T03:15:38;8.80;1.00
19868;DHT22;10096;51.112;6.776;2023-04-25T03:18:05;8.70;1.00
19868;DHT22;10096;51.112;6.776;2023-04-25T03:20:32;8.60;1.00
19868;DHT22;10096;51.112;6.776;2023-04-25T03:23:01;8.60;1.00
19868;DHT22;10096;51.112;6.776;2023-04-25T03:25:28;8.90;1.00
19868;DHT22;10096;51.112;6.776;2023-04-25T03:27:55;8.80;1.00
19868;DHT22;10096;51.112;6.776;2023-04-25T03:30:22;8.60;1.00
19868;DHT22;10096;51.112;6.776;2023-04-25T03:32:49;8.70;1.00
19868;DHT22;10096;51.112;6.776;2023-04-25T03:35:17;8.70;1.00
19868;DHT22;10096;51.112;6.776;2023-04-25T03:37:44;8.60;1.00
19868;DHT22;10096;51.112;6.776;2023-04-25T03:40:12;8.60;1.00
19868;DHT22;10096;51.112;6.776;2023-04-25T03:42:40;8.60;1.00
19868;DHT22;10096;51.112;6.776;2023-04-25T03:45:08;8.70;1.00
19868;DHT22;10096;51.112;6.776;2023-04-25T03:47:35;8.60;1.00
19868;DHT22;10096;51.112;6.776;2023-04-25T03:50:02;8.60;1.00
19868;DHT22;10096;51.112;6.776;2023-04-25T03:52:29;8.70;1.00
19868;DHT22;10096;51.112;6.776;2023-04-25T03:54:56;8.50;1.00
19868;DHT22;10096;51.112;6.776;2023-04-25T03:57:24;8.50;1.00
19868;DHT22;10096;51.112;6.776;2023-04-25T03:59:51;8.60;1.00
19868;DHT22;10096;51.112;6.776;2023-04-25T04:02:19;8.60;1.00
19868;DHT22;10096;51.112;6.776;2023-04-25T04:04:46;8.60;1.00
19868;DHT22;10096;51.112;6.776;2023-04-25T04:07:13;8.60;1.00
19868;DHT22;10096;51.112;6.776;2023-04-25T04:09:40;8.50;1.00
19868;DHT22;10096;51.112;6.776;2023-04-25T04:12:07;8.50;1.00
19868;DHT22;10096;51.112;6.776;2023-04-25T04:14:35;8.40;1.00
19868;DHT22;10096;51.112;6.776;2023-04-25T04:17:04;8.40;1.00
19868;DHT22;10096;51.112;6.776;2023-04-25T04:19:33;8.50;1.00
19868;DHT22;10096;51.112;6.776;2023-04-25T04:22:00;8.40;1.00
19868;DHT22;10096;51.112;6.776;2023-04-25T04:24:27;8.30;1.00
19868;DHT22;10096;51.112;6.776;2023-04-25T04:26:54;8.40;1.00
19868;DHT22;10096;51.112;6.776;2023-04-25T04:29:22;8.40;1.00
19868;DHT22;10096;51.112;6.776;2023-04-25T04:31:51;8.00;1.00
19868;DHT22;10096;51.112;6.776;2023-04-25T04:34:19;8.30;1.00
19868;DHT22;10096;51.112;6.776;2023-04-25T04:36:46;8.30;1.00
19868;DHT22;10096;51.112;6.776;2023-04-25T04:39:13;8.60;1.00
19868;DHT22;10096;51.112;6.776;2023-04-25T04:41:40;8.30;1.00
19868;DHT22;10096;51.112;6.776;2023-04-25T04:44:08;8.20;1.00
19868;DHT22;10096;51.112;6.776;2023-04-25T04:46:35;8.50;1.00
19868;DHT22;10096;51.112;6.776;2023-04-25T04:49:08;8.50;1.00
19868;DHT22;10096;51.112;6.776;2023-04-25T04:51:36;8.90;1.00
19868;DHT22;10096;51.112;6.776;2023-04-25T04:54:03;9.30;1.00
19868;DHT22;10096;51.112;6.776;2023-04-25T04:56:32;9.50;1.00
19868;DHT22;10096;51.112;6.776;2023-04-25T04:59:00;9.90;1.00
19868;DHT22;10096;51.112;6.776;2023-04-25T05:01:28;9.80;1.00
19868;DHT22;10096;51.112;6.776;2023-04-25T05:03:56;10.30;1.00
19868;DHT22;10096;51.112;6.776;2023-04-25T05:06:27;9.80;1.00
19868;DHT22;10096;51.112;6.776;2023-04-25T05:08:55;9.60;1.00
19868;DHT22;10096;51.112;6.776;2023-04-25T05:11:23;10.00;1.00
19868;DHT22;10096;51.112;6.776;2023-04-25T05:13:52;10.30;1.00
19868;DHT22;10096;51.112;6.776;2023-04-25T05:16:19;11.10;1.00
19868;DHT22;10096;51.112;6.776;2023-04-25T05:18:48;11.60;1.00
19868;DHT22;10096;51.112;6.776;2023-04-25T05:21:15;12.30;1.00
19868;DHT22;10096;51.112;6.776;2023-04-25T05:23:43;13.00;1.00
19868;DHT22;10096;51.112;6.776;2023-04-25T05:26:10;13.60;1.00
19868;DHT22;10096;51.112;6.776;2023-04-25T05:28:39;14.20;99.90
19868;DHT22;10096;51.112;6.776;2023-04-25T05:31:07;14.70;99.90
19868;DHT22;10096;51.112;6.776;2023-04-25T05:33:35;15.40;99.90
19868;DHT22;10096;51.112;6.776;2023-04-25T05:36:02;15.10;99.90
19868;DHT22;10096;51.112;6.776;2023-04-25T05:38:29;14.80;99.90
19868;DHT22;10096;51.112;6.776;2023-04-25T05:40:58;14.30;99.90
19868;DHT22;10096;51.112;6.776;2023-04-25T05:43:25;13.70;99.90
19868;DHT22;10096;51.112;6.776;2023-04-25T05:45:52;13.00;99.90
19868;DHT22;10096;51.112;6.776;2023-04-25T05:48:19;13.00;99.90
19868;DHT22;10096;51.112;6.776;2023-04-25T05:50:46;13.60;99.90
19868;DHT22;10096;51.112;6.776;2023-04-25T05:53:13;13.90;99.90
19868;DHT22;10096;51.112;6.776;2023-04-25T05:55:40;14.50;99.90
19868;DHT22;10096;51.112;6.776;2023-04-25T05:58:09;15.20;99.90
19868;DHT22;10096;51.112;6.776;2023-04-25T06:00:37;15.90;99.90
19868;DHT22;10096;51.112;6.776;2023-04-25T06:03:07;17.10;99.90
19868;DHT22;10096;51.112;6.776;2023-04-25T06:05:36;17.20;99.90
19868;DHT22;10096;51.112;6.776;2023-04-25T06:08:03;16.00;99.90
19868;DHT22;10096;51.112;6.776;2023-04-25T06:10:31;14.70;99.90
19868;DHT22;10096;51.112;6.776;2023-04-25T06:12:57;13.70;99.90
19868;DHT22;10096;51.112;6.776;2023-04-25T06:15:26;13.30;99.90
19868;DHT22;10096;51.112;6.776;2023-04-25T06:17:53;12.70;99.90
19868;DHT22;10096;51.112;6.776;2023-04-25T06:20:21;12.50;99.90
19868;DHT22;10096;51.112;6.776;2023-04-25T06:22:50;12.00;99.90
19868;DHT22;10096;51.112;6.776;2023-04-25T06:25:17;11.80;99.90
19868;DHT22;10096;51.112;6.776;2023-04-25T06:27:44;12.00;99.90
19868;DHT22;10096;51.112;6.776;2023-04-25T06:30:13;12.30;99.90
19868;DHT22;10096;51.112;6.776;2023-04-25T06:32:42;12.30;99.90
19868;DHT22;10096;51.112;6.776;2023-04-25T06:35:09;12.10;99.90
19868;DHT22;10096;51.112;6.776;2023-04-25T06:37:36;12.10;99.90
19868;DHT22;10096;51.112;6.776;2023-04-25T06:40:05;12.20;99.90
19868;DHT22;10096;51.112;6.776;2023-04-25T06:42:32;12.00;99.90
19868;DHT22;10096;51.112;6.776;2023-04-25T06:44:59;12.10;99.90
19868;DHT22;10096;51.112;6.776;2023-04-25T06:47:26;12.00;99.90
19868;DHT22;10096;51.112;6.776;2023-04-25T06:49:56;12.30;99.90
19868;DHT22;10096;51.112;6.776;2023-04-25T06:52:23;12.40;99.90
19868;DHT22;10096;51.112;6.776;2023-04-25T06:54:51;12.80;99.90
19868;DHT22;10096;51.112;6.776;2023-04-25T06:57:18;12.60;99.90
19868;DHT22;10096;51.112;6.776;2023-04-25T06:59:45;12.40;99.90
19868;DHT22;10096;51.112;6.776;2023-04-25T07:02:12;12.10;99.90
19868;DHT22;10096;51.112;6.776;2023-04-25T07:04:39;12.30;99.90
19868;DHT22;10096;51.112;6.776;2023-04-25T07:07:08;11.90;99.90
19868;DHT22;10096;51.112;6.776;2023-04-25T07:09:35;11.90;99.90
19868;DHT22;10096;51.112;6.776;2023-04-25T07:12:02;11.90;99.90
19868;DHT22;10096;51.112;6.776;2023-04-25T07:14:29;11.80;99.90
19868;DHT22;10096;51.112;6.776;2023-04-25T07:16:56;11.70;99.90
19868;DHT22;10096;51.112;6.776;2023-04-25T07:19:23;11.80;99.90
19868;DHT22;10096;51.112;6.776;2023-04-25T07:21:55;11.90;99.90
19868;DHT22;10096;51.112;6.776;2023-04-25T07:24:23;12.00;99.90
19868;DHT22;10096;51.112;6.776;2023-04-25T07:26:51;12.30;99.90
19868;DHT22;10096;51.112;6.776;2023-04-25T07:29:18;12.40;99.90
19868;DHT22;10096;51.112;6.776;2023-04-25T07:31:45;12.80;99.90
19868;DHT22;10096;51.112;6.776;2023-04-25T07:34:12;13.00;99.90
19868;DHT22;10096;51.112;6.776;2023-04-25T07:36:39;12.80;99.90
19868;DHT22;10096;51.112;6.776;2023-04-25T07:39:06;12.70;99.90
19868;DHT22;10096;51.112;6.776;2023-04-25T07:41:36;12.80;99.90
19868;DHT22;10096;51.112;6.776;2023-04-25T07:44:06;12.50;99.90
19868;DHT22;10096;51.112;6.776;2023-04-25T07:46:38;12.30;99.90
19868;DHT22;10096;51.112;6.776;2023-04-25T07:49:05;12.10;99.90
19868;DHT22;10096;51.112;6.776;2023-04-25T07:51:32;12.10;99.90
19868;DHT22;10096;51.112;6.776;2023-04-25T07:54:13;11.70;99.90
19868;DHT22;10096;51.112;6.776;2023-04-25T07:56:42;12.10;99.90
19868;DHT22;10096;51.112;6.776;2023-04-25T07:59:08;13.10;99.90
19868;DHT22;10096;51.112;6.776;2023-04-25T08:01:36;13.40;99.90
19868;DHT22;10096;51.112;6.776;2023-04-25T08:04:03;13.00;99.90
19868;DHT22;10096;51.112;6.776;2023-04-25T08:06:30;12.50;99.90
19868;DHT22;10096;51.112;6.776;2023-04-25T08:08:58;12.60;99.90
19868;DHT22;10096;51.112;6.776;2023-04-25T08:11:25;12.50;99.90
19868;DHT22;10096;51.112;6.776;2023-04-25T08:13:54;12.40;99.90
19868;DHT22;10096;51.112;6.776;2023-04-25T08:16:21;12.50;99.90
19868;DHT22;10096;51.112;6.776;2023-04-25T08:18:49;12.20;99.90
19868;DHT22;10096;51.112;6.776;2023-04-25T08:21:17;12.40;99.90
19868;DHT22;10096;51.112;6.776;2023-04-25T08:23:44;12.00;99.90
19868;DHT22;10096;51.112;6.776;2023-04-25T08:26:11;11.70;99.90
19868;DHT22;10096;51.112;6.776;2023-04-25T08:28:38;11.50;99.90
19868;DHT22;10096;51.112;6.776;2023-04-25T08:31:07;11.50;99.90
19868;DHT22;10096;51.112;6.776;2023-04-25T08:33:34;11.70;99.90
19868;DHT22;10096;51.112;6.776;2023-04-25T08:36:01;13.50;99.90
19868;DHT22;10096;51.112;6.776;2023-04-25T08:38:28;14.10;99.90
19868;DHT22;10096;51.112;6.776;2023-04-25T08:40:57;14.80;99.90
19868;DHT22;10096;51.112;6.776;2023-04-25T08:43:26;15.10;99.90
19868;DHT22;10096;51.112;6.776;2023-04-25T08:45:59;14.70;99.90
19868;DHT22;10096;51.112;6.776;2023-04-25T08:48:28;15.20;99.90
19868;DHT22;10096;51.112;6.776;2023-04-25T08:50:59;15.40;99.90
19868;DHT22;10096;51.112;6.776;2023-04-25T08:53:29;16.00;99.90
19868;DHT22;10096;51.112;6.776;2023-04-25T08:55:58;16.20;99.90
19868;DHT22;10096;51.112;6.776;2023-04-25T08:58:28;16.20;99.90
19868;DHT22;10096;51.112;6.776;2023-04-25T09:00:55;15.40;99.90
19868;DHT22;10096;51.112;6.776;2023-04-25T09:03:22;14.60;99.90
19868;DHT22;10096;51.112;6.776;2023-04-25T09:05:51;13.80;99.90
19868;DHT22;10096;51.112;6.776;2023-04-25T09:08:18;13.40;99.90
19868;DHT22;10096;51.112;6.776;2023-04-25T09:10:45;12.80;99.90
19868;DHT22;10096;51.112;6.776;2023-04-25T09:13:23;12.40;99.90
19868;DHT22;10096;51.112;6.776;2023-04-25T09:15:53;12.90;99.90
19868;DHT22;10096;51.112;6.776;2023-04-25T09:18:24;13.40;99.90
19868;DHT22;10096;51.112;6.776;2023-04-25T09:20:54;14.00;99.90
19868;DHT22;10096;51.112;6.776;2023-04-25T09:23:22;14.10;99.90
19868;DHT22;10096;51.112;6.776;2023-04-25T09:25:50;12.90;99.90
19868;DHT22;10096;51.112;6.776;2023-04-25T09:28:23;12.90;99.90
19868;DHT22;10096;51.112;6.776;2023-04-25T09:30:55;12.60;99.90
19868;DHT22;10096;51.112;6.776;2023-04-25T09:33:28;12.50;99.90
19868;DHT22;10096;51.112;6.776;2023-04-25T09:36:04;12.60;99.90
19868;DHT22;10096;51.112;6.776;2023-04-25T09:38:32;12.90;99.90
19868;DHT22;10096;51.112;6.776;2023-04-25T09:41:02;12.80;99.90
19868;DHT22;10096;51.112;6.776;2023-04-25T09:43:29;12.80;99.90
19868;DHT22;10096;51.112;6.776;2023-04-25T09:45:56;12.90;99.90
19868;DHT22;10096;51.112;6.776;2023-04-25T09:48:26;12.60;99.90
19868;DHT22;10096;51.112;6.776;2023-04-25T09:51:22;13.00;99.90
19868;DHT22;10096;51.112;6.776;2023-04-25T09:53:54;13.00;99.90
19868;DHT22;10096;51.112;6.776;2023-04-25T09:56:22;13.30;99.90
19868;DHT22;10096;51.112;6.776;2023-04-25T09:58:50;14.00;99.90
19868;DHT22;10096;51.112;6.776;2023-04-25T10:01:23;14.30;99.90
19868;DHT22;10096;51.112;6.776;2023-04-25T10:03:52;14.20;99.90
19868;DHT22;10096;51.112;6.776;2023-04-25T10:06:24;14.10;99.90
19868;DHT22;10096;51.112;6.776;2023-04-25T10:08:52;13.90;99.90
19868;DHT22;10096;51.112;6.776;2023-04-25T10:11:28;13.60;99.90
19868;DHT22;10096;51.112;6.776;2023-04-25T10:13:56;13.30;99.90
19868;DHT22;10096;51.112;6.776;2023-04-25T10:16:24;13.20;99.90
19868;DHT22;10096;51.112;6.776;2023-04-25T10:18:52;13.10;99.90
19868;DHT22;10096;51.112;6.776;2023-04-25T10:21:20;13.20;99.90
19868;DHT22;10096;51.112;6.776;2023-04-25T10:23:50;13.30;99.90
19868;DHT22;10096;51.112;6.776;2023-04-25T10:26:19;13.40;99.90
19868;DHT22;10096;51.112;6.776;2023-04-25T10:28:58;13.40;99.90
19868;DHT22;10096;51.112;6.776;2023-04-25T10:31:25;13.70;99.90
19868;DHT22;10096;51.112;6.776;2023-04-25T10:33:53;13.90;99.90
19868;DHT22;10096;51.112;6.776;2023-04-25T10:36:24;13.90;99.90
19868;DHT22;10096;51.112;6.776;2023-04-25T10:38:56;14.80;99.90
19868;DHT22;10096;51.112;6.776;2023-04-25T10:41:23;14.70;99.90
19868;DHT22;10096;51.112;6.776;2023-04-25T10:43:59;14.60;99.90
19868;DHT22;10096;51.112;6.776;2023-04-25T10:46:30;14.30;99.90
19868;DHT22;10096;51.112;6.776;2023-04-25T10:49:03;14.00;99.90
19868;DHT22;10096;51.112;6.776;2023-04-25T10:51:33;13.50;99.90
19868;DHT22;10096;51.112;6.776;2023-04-25T10:54:02;13.70;99.90
19868;DHT22;10096;51.112;6.776;2023-04-25T10:58:06;13.90;99.90
19868;DHT22;10096;51.112;6.776;2023-04-25T10:59:19;14.00;99.90
19868;DHT22;10096;51.112;6.776;2023-04-25T11:01:51;14.20;99.90
19868;DHT22;10096;51.112;6.776;2023-04-25T11:04:20;14.10;99.90
19868;DHT22;10096;51.112;6.776;2023-04-25T11:06:58;14.10;99.90
19868;DHT22;10096;51.112;6.776;2023-04-25T11:09:39;14.20;99.90
19868;DHT22;10096;51.112;6.776;2023-04-25T11:12:09;14.10;99.90
19868;DHT22;10096;51.112;6.776;2023-04-25T11:14:38;13.70;99.90
19868;DHT22;10096;51.112;6.776;2023-04-25T11:17:05;13.40;99.90
19868;DHT22;10096;51.112;6.776;2023-04-25T11:19:33;13.50;99.90
19868;DHT22;10096;51.112;6.776;2023-04-25T11:22:14;13.60;99.90
19868;DHT22;10096;51.112;6.776;2023-04-25T11:24:42;14.10;99.90
19868;DHT22;10096;51.112;6.776;2023-04-25T11:27:11;14.00;99.90
19868;DHT22;10096;51.112;6.776;2023-04-25T11:29:41;14.00;99.90
19868;DHT22;10096;51.112;6.776;2023-04-25T11:32:08;14.00;99.90
19868;DHT22;10096;51.112;6.776;2023-04-25T11:34:35;14.20;99.90
19868;DHT22;10096;51.112;6.776;2023-04-25T11:37:03;14.90;99.90
19868;DHT22;10096;51.112;6.776;2023-04-25T11:39:32;14.90;99.90
19868;DHT22;10096;51.112;6.776;2023-04-25T11:42:01;15.20;99.90
19868;DHT22;10096;51.112;6.776;2023-04-25T11:44:28;16.00;99.90
19868;DHT22;10096;51.112;6.776;2023-04-25T11:46:56;16.00;99.90
19868;DHT22;10096;51.112;6.776;2023-04-25T11:49:23;15.60;99.90
19868;DHT22;10096;51.112;6.776;2023-04-25T11:51:52;15.70;99.90
19868;DHT22;10096;51.112;6.776;2023-04-25T11:54:19;15.40;99.90
19868;DHT22;10096;51.112;6.776;2023-04-25T11:56:48;15.40;99.90
19868;DHT22;10096;51.112;6.776;2023-04-25T11:59:32;15.60;99.90
19868;DHT22;10096;51.112;6.776;2023-04-25T12:02:24;15.20;99.90
19868;DHT22;10096;51.112;6.776;2023-04-25T12:05:16;14.70;99.90
19868;DHT22;10096;51.112;6.776;2023-04-25T12:07:45;14.60;99.90
19868;DHT22;10096;51.112;6.776;2023-04-25T12:10:14;14.10;99.90
19868;DHT22;10096;51.112;6.776;2023-04-25T12:12:43;13.90;99.90
19868;DHT22;10096;51.112;6.776;2023-04-25T12:18:08;13.50;99.90
19868;DHT22;10096;51.112;6.776;2023-04-25T12:20:44;13.30;99.90
19868;DHT22;10096;51.112;6.776;2023-04-25T12:23:11;13.40;99.90
19868;DHT22;10096;51.112;6.776;2023-04-25T12:25:39;13.50;99.90
19868;DHT22;10096;51.112;6.776;2023-04-25T12:28:11;13.40;99.90
19868;DHT22;10096;51.112;6.776;2023-04-25T12:30:55;13.40;99.90
19868;DHT22;10096;51.112;6.776;2023-04-25T12:33:28;13.20;99.90
19868;DHT22;10096;51.112;6.776;2023-04-25T12:35:56;13.50;99.90
19868;DHT22;10096;51.112;6.776;2023-04-25T12:38:25;13.40;99.90
19868;DHT22;10096;51.112;6.776;2023-04-25T12:40:52;13.50;99.90
19868;DHT22;10096;51.112;6.776;2023-04-25T12:43:23;14.00;99.90
19868;DHT22;10096;51.112;6.776;2023-04-25T12:45:51;14.30;99.90
19868;DHT22;10096;51.112;6.776;2023-04-25T12:48:19;14.50;99.90
19868;DHT22;10096;51.112;6.776;2023-04-25T12:50:48;14.60;99.90
19868;DHT22;10096;51.112;6.776;2023-04-25T12:53:15;14.20;99.90
19868;DHT22;10096;51.112;6.776;2023-04-25T12:55:42;14.20;99.90
19868;DHT22;10096;51.112;6.776;2023-04-25T12:58:17;14.30;99.90
19868;DHT22;10096;51.112;6.776;2023-04-25T13:00:48;14.40;99.90
19868;DHT22;10096;51.112;6.776;2023-04-25T13:03:15;14.00;99.90
19868;DHT22;10096;51.112;6.776;2023-04-25T13:05:43;13.80;99.90
19868;DHT22;10096;51.112;6.776;2023-04-25T13:08:17;13.50;99.90
19868;DHT22;10096;51.112;6.776;2023-04-25T13:10:44;13.70;99.90
19868;DHT22;10096;51.112;6.776;2023-04-25T13:13:11;13.80;99.90
19868;DHT22;10096;51.112;6.776;2023-04-25T13:15:38;13.40;99.90
19868;DHT22;10096;51.112;6.776;2023-04-25T13:18:05;13.30;99.90
19868;DHT22;10096;51.112;6.776;2023-04-25T13:20:33;13.00;99.90
19868;DHT22;10096;51.112;6.776;2023-04-25T13:23:12;13.20;99.90
19868;DHT22;10096;51.112;6.776;2023-04-25T13:25:39;13.70;99.90
19868;DHT22;10096;51.112;6.776;2023-04-25T13:28:06;13.90;99.90
19868;DHT22;10096;51.112;6.776;2023-04-25T13:30:37;14.00;99.90
19868;DHT22;10096;51.112;6.776;2023-04-25T13:33:04;14.40;99.90
19868;DHT22;10096;51.112;6.776;2023-04-25T13:35:32;14.30;99.90
19868;DHT22;10096;51.112;6.776;2023-04-25T13:38:00;13.90;99.90
19868;DHT22;10096;51.112;6.776;2023-04-25T13:40:28;14.00;99.90
19868;DHT22;10096;51.112;6.776;2023-04-25T13:42:57;13.60;99.90
19868;DHT22;10096;51.112;6.776;2023-04-25T13:45:24;13.30;99.90
19868;DHT22;10096;51.112;6.776;2023-04-25T13:47:54;13.50;99.90
19868;DHT22;10096;51.112;6.776;2023-04-25T13:50:21;13.80;99.90
19868;DHT22;10096;51.112;6.776;2023-04-25T13:52:49;13.70;99.90
19868;DHT22;10096;51.112;6.776;2023-04-25T13:55:16;13.70;99.90
19868;DHT22;10096;51.112;6.776;2023-04-25T13:57:45;14.10;99.90
19868;DHT22;10096;51.112;6.776;2023-04-25T14:00:13;14.30;99.90
19868;DHT22;10096;51.112;6.776;2023-04-25T14:02:40;14.10;99.90
19868;DHT22;10096;51.112;6.776;2023-04-25T14:05:08;13.90;99.90
19868;DHT22;10096;51.112;6.776;2023-04-25T14:07:37;13.90;99.90
19868;DHT22;10096;51.112;6.776;2023-04-25T14:10:06;14.20;99.90
19868;DHT22;10096;51.112;6.776;2023-04-25T14:12:37;14.50;99.90
19868;DHT22;10096;51.112;6.776;2023-04-25T14:15:07;14.30;99.90
19868;DHT22;10096;51.112;6.776;2023-04-25T14:17:35;14.50;99.90
19868;DHT22;10096;51.112;6.776;2023-04-25T14:20:04;14.40;99.90
19868;DHT22;10096;51.112;6.776;2023-04-25T14:22:36;14.30;99.90
19868;DHT22;10096;51.112;6.776;2023-04-25T14:25:07;13.90;99.90
19868;DHT22;10096;51.112;6.776;2023-04-25T14:27:39;13.80;99.90
19868;DHT22;10096;51.112;6.776;2023-04-25T14:30:09;13.70;99.90
19868;DHT22;10096;51.112;6.776;2023-04-25T14:32:37;14.00;99.90
19868;DHT22;10096;51.112;6.776;2023-04-25T14:35:05;14.20;99.90
19868;DHT22;10096;51.112;6.776;2023-04-25T14:37:32;14.30;99.90
19868;DHT22;10096;51.112;6.776;2023-04-25T14:40:00;14.40;99.90
19868;DHT22;10096;51.112;6.776;2023-04-25T14:42:27;14.40;99.90
19868;DHT22;10096;51.112;6.776;2023-04-25T14:44:57;14.40;99.90
19868;DHT22;10096;51.112;6.776;2023-04-25T14:47:26;14.80;99.90
19868;DHT22;10096;51.112;6.776;2023-04-25T14:49:53;14.80;99.90
19868;DHT22;10096;51.112;6.776;2023-04-25T14:52:20;14.70;99.90
19868;DHT22;10096;51.112;6.776;2023-04-25T14:54:47;14.60;99.90
19868;DHT22;10096;51.112;6.776;2023-04-25T14:57:14;14.70;99.90
19868;DHT22;10096;51.112;6.776;2023-04-25T14:59:42;14.90;99.90
19868;DHT22;10096;51.112;6.776;2023-04-25T15:02:09;15.10;99.90
19868;DHT22;10096;51.112;6.776;2023-04-25T15:04:38;14.90;99.90
19868;DHT22;10096;51.112;6.776;2023-04-25T15:07:05;14.70;99.90
19868;DHT22;10096;51.112;6.776;2023-04-25T15:09:37;14.70;99.90
19868;DHT22;10096;51.112;6.776;2023-04-25T15:12:04;14.70;99.90
19868;DHT22;10096;51.112;6.776;2023-04-25T15:14:32;14.50;99.90
19868;DHT22;10096;51.112;6.776;2023-04-25T15:17:01;14.30;99.90
19868;DHT22;10096;51.112;6.776;2023-04-25T15:19:34;14.30;99.90
19868;DHT22;10096;51.112;6.776;2023-04-25T15:22:05;14.50;99.90
19868;DHT22;10096;51.112;6.776;2023-04-25T15:24:33;14.30;99.90
19868;DHT22;10096;51.112;6.776;2023-04-25T15:27:00;14.20;99.90
19868;DHT22;10096;51.112;6.776;2023-04-25T15:29:28;14.20;99.90
19868;DHT22;10096;51.112;6.776;2023-04-25T15:31:55;14.10;99.90
19868;DHT22;10096;51.112;6.776;2023-04-25T15:34:23;14.10;99.90
19868;DHT22;10096;51.112;6.776;2023-04-25T15:36:51;14.40;99.90
19868;DHT22;10096;51.112;6.776;2023-04-25T15:39:21;14.30;99.90
19868;DHT22;10096;51.112;6.776;2023-04-25T15:41:48;14.20;99.90
19868;DHT22;10096;51.112;6.776;2023-04-25T15:44:15;14.20;99.90
19868;DHT22;10096;51.112;6.776;2023-04-25T15:46:42;14.50;99.90
19868;DHT22;10096;51.112;6.776;2023-04-25T15:49:11;14.50;99.90
19868;DHT22;10096;51.112;6.776;2023-04-25T15:51:39;14.20;99.90